sensor_id;sensor_type;location;lat;lon;timestamp;temperature;humidity
33269;DHT22;19640;50.944;5.260;2023-01-29T00:01:24;-3.20;99.90
33269;DHT22;19640;50.944;5.260;2023-01-29T00:03:51;-3.20;99.90
33269;DHT22;19640;50.944;5.260;2023-01-29T00:06:17;-3.30;99.90
33269;DHT22;19640;50.944;5.260;2023-01-29T00:08:43;-3.30;99.90
33269;DHT22;19640;50.944;5.260;2023-01-29T00:11:09;-3.30;99.90
33269;DHT22;19640;50.944;5.260;2023-01-29T00:13:35;-3.30;99.90
33269;DHT22;19640;50.944;5.260;2023-01-29T00:16:01;-3.30;99.90
33269;DHT22;19640;50.944;5.260;2023-01-29T00:18:27;-3.10;99.90
33269;DHT22;19640;50.944;5.260;2023-01-29T00:20:53;-3.00;99.90
33269;DHT22;19640;50.944;5.260;2023-01-29T00:23:19;-2.80;99.90
33269;DHT22;19640;50.944;5.260;2023-01-29T00:25:45;-2.90;99.90
33269;DHT22;19640;50.944;5.260;2023-01-29T00:28:11;-3.00;99.90
33269;DHT22;19640;50.944;5.260;2023-01-29T00:30:37;-2.90;99.90
33269;DHT22;19640;50.944;5.260;2023-01-29T00:33:03;-2.90;99.90
33269;DHT22;19640;50.944;5.260;2023-01-29T00:35:29;-2.90;99.90
33269;DHT22;19640;50.944;5.260;2023-01-29T00:37:55;-2.70;99.90
33269;DHT22;19640;50.944;5.260;2023-01-29T00:40:21;-2.60;99.90
33269;DHT22;19640;50.944;5.260;2023-01-29T00:42:50;-2.50;99.90
33269;DHT22;19640;50.944;5.260;2023-01-29T00:45:34;-2.40;99.90
33269;DHT22;19640;50.944;5.260;2023-01-29T00:48:02;-2.20;99.90
33269;DHT22;19640;50.944;5.260;2023-01-29T00:50:28;-2.40;99.90
33269;DHT22;19640;50.944;5.260;2023-01-29T00:52:54;-2.60;99.90
33269;DHT22;19640;50.944;5.260;2023-01-29T00:55:20;-2.50;99.90
33269;DHT22;19640;50.944;5.260;2023-01-29T00:57:46;-2.60;99.90
33269;DHT22;19640;50.944;5.260;2023-01-29T01:00:14;-2.60;99.90
33269;DHT22;19640;50.944;5.260;2023-01-29T01:02:40;-2.50;99.90
33269;DHT22;19640;50.944;5.260;2023-01-29T01:05:24;-2.40;99.90
33269;DHT22;19640;50.944;5.260;2023-01-29T01:07:52;-2.50;99.90
33269;DHT22;19640;50.944;5.260;2023-01-29T01:10:21;-2.70;99.90
33269;DHT22;19640;50.944;5.260;2023-01-29T01:12:59;-2.90;99.90
33269;DHT22;19640;50.944;5.260;2023-01-29T01:15:37;-3.10;99.90
33269;DHT22;19640;50.944;5.260;2023-01-29T01:18:03;-3.30;99.90
33269;DHT22;19640;50.944;5.260;2023-01-29T01:20:31;-3.40;99.90
33269;DHT22;19640;50.944;5.260;2023-01-29T01:22:57;-3.50;99.90
33269;DHT22;19640;50.944;5.260;2023-01-29T01:25:24;-3.50;99.90
33269;DHT22;19640;50.944;5.260;2023-01-29T01:27:54;-3.60;99.90
33269;DHT22;19640;50.944;5.260;2023-01-29T01:30:20;-3.70;99.90
33269;DHT22;19640;50.944;5.260;2023-01-29T01:32:46;-3.70;99.90
33269;DHT22;19640;50.944;5.260;2023-01-29T01:35:12;-3.60;99.90
33269;DHT22;19640;50.944;5.260;2023-01-29T01:37:39;-3.60;99.90
33269;DHT22;19640;50.944;5.260;2023-01-29T01:40:08;-3.60;99.90
33269;DHT22;19640;50.944;5.260;2023-01-29T01:42:38;-3.60;99.90
33269;DHT22;19640;50.944;5.260;2023-01-29T01:45:07;-3.50;99.90
33269;DHT22;19640;50.944;5.260;2023-01-29T01:47:51;-3.30;99.90
33269;DHT22;19640;50.944;5.260;2023-01-29T01:50:23;-3.00;99.90
33269;DHT22;19640;50.944;5.260;2023-01-29T01:52:54;-2.90;99.90
33269;DHT22;19640;50.944;5.260;2023-01-29T01:55:23;-2.90;99.90
33269;DHT22;19640;50.944;5.260;2023-01-29T01:57:54;-2.80;99.90
33269;DHT22;19640;50.944;5.260;2023-01-29T02:00:24;-2.70;99.90
33269;DHT22;19640;50.944;5.260;2023-01-29T02:02:50;-2.60;99.90
33269;DHT22;19640;50.944;5.260;2023-01-29T02:05:35;-2.50;99.90
33269;DHT22;19640;50.944;5.260;2023-01-29T02:11:12;-2.60;99.90
33269;DHT22;19640;50.944;5.260;2023-01-29T02:13:38;-2.50;99.90
33269;DHT22;19640;50.944;5.260;2023-01-29T02:16:04;-2.70;99.90
33269;DHT22;19640;50.944;5.260;2023-01-29T02:18:30;-2.80;99.90
33269;DHT22;19640;50.944;5.260;2023-01-29T02:26:08;-2.70;99.90
33269;DHT22;19640;50.944;5.260;2023-01-29T02:28:48;-2.60;99.90
33269;DHT22;19640;50.944;5.260;2023-01-29T02:34:14;-2.60;99.90
33269;DHT22;19640;50.944;5.260;2023-01-29T02:37:12;-2.40;99.90
33269;DHT22;19640;50.944;5.260;2023-01-29T02:39:56;-2.50;99.90
33269;DHT22;19640;50.944;5.260;2023-01-29T02:42:41;-2.80;99.90
33269;DHT22;19640;50.944;5.260;2023-01-29T02:45:17;-3.10;99.90
33269;DHT22;19640;50.944;5.260;2023-01-29T02:47:59;-3.40;99.90
33269;DHT22;19640;50.944;5.260;2023-01-29T02:50:40;-3.50;99.90
33269;DHT22;19640;50.944;5.260;2023-01-29T02:53:14;-3.60;99.90
33269;DHT22;19640;50.944;5.260;2023-01-29T02:56:17;-3.80;99.90
33269;DHT22;19640;50.944;5.260;2023-01-29T02:58:53;-3.90;99.90
33269;DHT22;19640;50.944;5.260;2023-01-29T03:01:34;-3.80;99.90
33269;DHT22;19640;50.944;5.260;2023-01-29T03:04:05;-3.80;99.90
33269;DHT22;19640;50.944;5.260;2023-01-29T03:06:44;-3.70;99.90
33269;DHT22;19640;50.944;5.260;2023-01-29T03:09:19;-3.70;99.90
33269;DHT22;19640;50.944;5.260;2023-01-29T03:11:50;-3.80;99.90
33269;DHT22;19640;50.944;5.260;2023-01-29T03:14:23;-3.80;99.90
33269;DHT22;19640;50.944;5.260;2023-01-29T03:16:51;-3.90;99.90
33269;DHT22;19640;50.944;5.260;2023-01-29T03:19:18;-3.90;99.90
33269;DHT22;19640;50.944;5.260;2023-01-29T03:21:50;-4.00;99.90
33269;DHT22;19640;50.944;5.260;2023-01-29T03:24:49;-4.00;99.90
33269;DHT22;19640;50.944;5.260;2023-01-29T03:27:43;-4.10;99.90
33269;DHT22;19640;50.944;5.260;2023-01-29T03:30:31;-4.10;99.90
33269;DHT22;19640;50.944;5.260;2023-01-29T03:33:18;-4.20;99.90
33269;DHT22;19640;50.944;5.260;2023-01-29T03:35:59;-4.30;99.90
33269;DHT22;19640;50.944;5.260;2023-01-29T03:38:28;-4.30;99.90
33269;DHT22;19640;50.944;5.260;2023-01-29T03:41:05;-4.40;99.90
33269;DHT22;19640;50.944;5.260;2023-01-29T03:43:56;-4.40;99.90
33269;DHT22;19640;50.944;5.260;2023-01-29T03:46:31;-4.30;99.90
33269;DHT22;19640;50.944;5.260;2023-01-29T03:54:53;-3.90;99.90
33269;DHT22;19640;50.944;5.260;2023-01-29T03:57:30;-3.60;99.90
33269;DHT22;19640;50.944;5.260;2023-01-29T04:00:04;-3.50;99.90
33269;DHT22;19640;50.944;5.260;2023-01-29T04:02:36;-3.30;99.90
33269;DHT22;19640;50.944;5.260;2023-01-29T04:05:10;-3.20;99.90
33269;DHT22;19640;50.944;5.260;2023-01-29T04:07:40;-3.10;99.90
33269;DHT22;19640;50.944;5.260;2023-01-29T04:10:16;-2.50;99.90
33269;DHT22;19640;50.944;5.260;2023-01-29T04:12:53;-2.50;99.90
33269;DHT22;19640;50.944;5.260;2023-01-29T04:15:21;-2.70;99.90
33269;DHT22;19640;50.944;5.260;2023-01-29T04:17:52;-2.80;99.90
33269;DHT22;19640;50.944;5.260;2023-01-29T04:20:20;-2.80;99.90
33269;DHT22;19640;50.944;5.260;2023-01-29T04:22:48;-3.00;99.90
33269;DHT22;19640;50.944;5.260;2023-01-29T04:25:20;-2.90;99.90
33269;DHT22;19640;50.944;5.260;2023-01-29T04:28:03;-2.90;99.90
33269;DHT22;19640;50.944;5.260;2023-01-29T04:33:22;-3.70;99.90
33269;DHT22;19640;50.944;5.260;2023-01-29T04:41:41;-3.80;99.90
33269;DHT22;19640;50.944;5.260;2023-01-29T04:52:23;-3.70;99.90
33269;DHT22;19640;50.944;5.260;2023-01-29T04:57:49;-3.70;99.90
33269;DHT22;19640;50.944;5.260;2023-01-29T05:00:27;-3.80;99.90
33269;DHT22;19640;50.944;5.260;2023-01-29T05:02:55;-3.50;99.90
33269;DHT22;19640;50.944;5.260;2023-01-29T05:05:21;-3.30;99.90
33269;DHT22;19640;50.944;5.260;2023-01-29T05:07:47;-3.10;99.90
33269;DHT22;19640;50.944;5.260;2023-01-29T05:10:16;-3.30;99.90
33269;DHT22;19640;50.944;5.260;2023-01-29T05:12:46;-3.20;99.90
33269;DHT22;19640;50.944;5.260;2023-01-29T05:15:16;-3.20;99.90
33269;DHT22;19640;50.944;5.260;2023-01-29T05:17:43;-3.20;99.90
33269;DHT22;19640;50.944;5.260;2023-01-29T05:20:10;-3.30;99.90
33269;DHT22;19640;50.944;5.260;2023-01-29T05:22:38;-3.50;99.90
33269;DHT22;19640;50.944;5.260;2023-01-29T05:27:44;-3.70;99.90
33269;DHT22;19640;50.944;5.260;2023-01-29T05:30:28;-3.80;99.90
33269;DHT22;19640;50.944;5.260;2023-01-29T05:32:54;-3.90;99.90
33269;DHT22;19640;50.944;5.260;2023-01-29T05:35:19;-4.00;99.90
33269;DHT22;19640;50.944;5.260;2023-01-29T05:37:45;-4.00;99.90
33269;DHT22;19640;50.944;5.260;2023-01-29T05:40:11;-4.00;99.90
33269;DHT22;19640;50.944;5.260;2023-01-29T05:42:36;-4.00;99.90
33269;DHT22;19640;50.944;5.260;2023-01-29T05:45:03;-4.00;99.90
33269;DHT22;19640;50.944;5.260;2023-01-29T05:47:28;-4.00;99.90
33269;DHT22;19640;50.944;5.260;2023-01-29T05:49:54;-4.00;99.90
33269;DHT22;19640;50.944;5.260;2023-01-29T05:52:20;-3.90;99.90
33269;DHT22;19640;50.944;5.260;2023-01-29T05:54:45;-3.70;99.90
33269;DHT22;19640;50.944;5.260;2023-01-29T05:57:11;-3.60;99.90
33269;DHT22;19640;50.944;5.260;2023-01-29T05:59:36;-3.50;99.90
33269;DHT22;19640;50.944;5.260;2023-01-29T06:02:02;-3.40;99.90
33269;DHT22;19640;50.944;5.260;2023-01-29T06:04:28;-3.20;99.90
33269;DHT22;19640;50.944;5.260;2023-01-29T06:06:53;-3.10;99.90
33269;DHT22;19640;50.944;5.260;2023-01-29T06:09:19;-3.00;99.90
33269;DHT22;19640;50.944;5.260;2023-01-29T06:11:44;-2.80;99.90
33269;DHT22;19640;50.944;5.260;2023-01-29T06:14:10;-2.90;99.90
33269;DHT22;19640;50.944;5.260;2023-01-29T06:16:36;-2.90;99.90
33269;DHT22;19640;50.944;5.260;2023-01-29T06:19:01;-2.80;99.90
33269;DHT22;19640;50.944;5.260;2023-01-29T06:21:27;-2.70;99.90
33269;DHT22;19640;50.944;5.260;2023-01-29T06:23:53;-2.60;99.90
33269;DHT22;19640;50.944;5.260;2023-01-29T06:26:18;-2.50;99.90
33269;DHT22;19640;50.944;5.260;2023-01-29T06:28:47;-2.40;99.90
33269;DHT22;19640;50.944;5.260;2023-01-29T06:31:14;-2.50;99.90
33269;DHT22;19640;50.944;5.260;2023-01-29T06:33:39;-2.50;99.90
33269;DHT22;19640;50.944;5.260;2023-01-29T06:36:05;-2.40;99.90
33269;DHT22;19640;50.944;5.260;2023-01-29T06:38:31;-2.30;99.90
33269;DHT22;19640;50.944;5.260;2023-01-29T06:40:57;-2.30;99.90
33269;DHT22;19640;50.944;5.260;2023-01-29T06:43:24;-2.10;99.90
33269;DHT22;19640;50.944;5.260;2023-01-29T06:45:55;-2.10;99.90
33269;DHT22;19640;50.944;5.260;2023-01-29T06:48:22;-2.00;99.90
33269;DHT22;19640;50.944;5.260;2023-01-29T06:50:49;-2.00;99.90
33269;DHT22;19640;50.944;5.260;2023-01-29T06:53:15;-2.10;99.90
33269;DHT22;19640;50.944;5.260;2023-01-29T06:55:41;-2.10;99.90
33269;DHT22;19640;50.944;5.260;2023-01-29T06:58:10;-2.00;99.90
33269;DHT22;19640;50.944;5.260;2023-01-29T07:00:36;-1.80;99.90
33269;DHT22;19640;50.944;5.260;2023-01-29T07:03:03;-1.90;99.90
33269;DHT22;19640;50.944;5.260;2023-01-29T07:05:29;-1.60;99.90
33269;DHT22;19640;50.944;5.260;2023-01-29T07:07:55;-1.20;99.90
33269;DHT22;19640;50.944;5.260;2023-01-29T07:10:20;-1.00;99.90
33269;DHT22;19640;50.944;5.260;2023-01-29T07:12:46;-0.80;99.90
33269;DHT22;19640;50.944;5.260;2023-01-29T07:15:12;-0.80;99.90
33269;DHT22;19640;50.944;5.260;2023-01-29T07:17:38;-0.70;99.90
33269;DHT22;19640;50.944;5.260;2023-01-29T07:20:05;-0.60;99.90
33269;DHT22;19640;50.944;5.260;2023-01-29T07:22:31;-1.00;99.90
33269;DHT22;19640;50.944;5.260;2023-01-29T07:24:57;-1.30;99.90
33269;DHT22;19640;50.944;5.260;2023-01-29T07:27:23;-1.40;99.90
33269;DHT22;19640;50.944;5.260;2023-01-29T07:29:49;-1.10;99.90
33269;DHT22;19640;50.944;5.260;2023-01-29T07:32:14;-0.80;99.90
33269;DHT22;19640;50.944;5.260;2023-01-29T07:34:40;-0.50;99.90
33269;DHT22;19640;50.944;5.260;2023-01-29T07:37:06;-0.40;99.90
33269;DHT22;19640;50.944;5.260;2023-01-29T07:39:31;-0.30;99.90
33269;DHT22;19640;50.944;5.260;2023-01-29T07:41:57;-0.50;99.90
33269;DHT22;19640;50.944;5.260;2023-01-29T07:44:23;-0.70;99.90
33269;DHT22;19640;50.944;5.260;2023-01-29T07:46:48;-0.70;99.90
33269;DHT22;19640;50.944;5.260;2023-01-29T07:49:14;-0.50;99.90
33269;DHT22;19640;50.944;5.260;2023-01-29T07:51:40;-0.50;99.90
33269;DHT22;19640;50.944;5.260;2023-01-29T07:54:06;-0.40;99.90
33269;DHT22;19640;50.944;5.260;2023-01-29T07:56:31;-0.70;99.90
33269;DHT22;19640;50.944;5.260;2023-01-29T07:58:57;-0.80;99.90
33269;DHT22;19640;50.944;5.260;2023-01-29T08:01:23;-0.70;99.90
33269;DHT22;19640;50.944;5.260;2023-01-29T08:03:48;-0.30;99.90
33269;DHT22;19640;50.944;5.260;2023-01-29T08:06:14;-0.30;99.90
33269;DHT22;19640;50.944;5.260;2023-01-29T08:08:40;-0.40;99.90
33269;DHT22;19640;50.944;5.260;2023-01-29T08:11:05;-0.10;99.90
33269;DHT22;19640;50.944;5.260;2023-01-29T08:13:32;0.10;99.90
33269;DHT22;19640;50.944;5.260;2023-01-29T08:16:01;0.30;99.90
33269;DHT22;19640;50.944;5.260;2023-01-29T08:18:27;0.20;99.90
33269;DHT22;19640;50.944;5.260;2023-01-29T08:20:58;0.10;99.90
33269;DHT22;19640;50.944;5.260;2023-01-29T08:23:24;0.20;99.90
33269;DHT22;19640;50.944;5.260;2023-01-29T08:25:49;0.40;99.90
33269;DHT22;19640;50.944;5.260;2023-01-29T08:28:15;0.60;99.90
33269;DHT22;19640;50.944;5.260;2023-01-29T08:30:41;0.60;99.90
33269;DHT22;19640;50.944;5.260;2023-01-29T08:33:08;0.80;99.90
33269;DHT22;19640;50.944;5.260;2023-01-29T08:35:34;0.80;99.90
33269;DHT22;19640;50.944;5.260;2023-01-29T08:38:01;0.60;99.90
33269;DHT22;19640;50.944;5.260;2023-01-29T08:40:28;0.50;99.90
33269;DHT22;19640;50.944;5.260;2023-01-29T08:43:04;0.50;99.90
33269;DHT22;19640;50.944;5.260;2023-01-29T08:45:33;0.50;99.90
33269;DHT22;19640;50.944;5.260;2023-01-29T08:47:59;0.70;99.90
33269;DHT22;19640;50.944;5.260;2023-01-29T08:50:24;0.70;99.90
33269;DHT22;19640;50.944;5.260;2023-01-29T08:52:50;0.70;99.90
33269;DHT22;19640;50.944;5.260;2023-01-29T08:55:16;0.70;99.90
33269;DHT22;19640;50.944;5.260;2023-01-29T08:57:41;0.30;99.90
33269;DHT22;19640;50.944;5.260;2023-01-29T09:00:08;0.30;99.90
33269;DHT22;19640;50.944;5.260;2023-01-29T09:02:34;0.50;99.90
33269;DHT22;19640;50.944;5.260;2023-01-29T09:05:00;0.60;99.90
33269;DHT22;19640;50.944;5.260;2023-01-29T09:07:25;0.80;99.90
33269;DHT22;19640;50.944;5.260;2023-01-29T09:09:51;0.90;99.90
33269;DHT22;19640;50.944;5.260;2023-01-29T09:12:17;0.90;99.90
33269;DHT22;19640;50.944;5.260;2023-01-29T09:14:42;0.90;99.90
33269;DHT22;19640;50.944;5.260;2023-01-29T09:17:08;0.90;99.90
33269;DHT22;19640;50.944;5.260;2023-01-29T09:19:35;1.00;99.90
33269;DHT22;19640;50.944;5.260;2023-01-29T09:22:00;0.90;99.90
33269;DHT22;19640;50.944;5.260;2023-01-29T09:24:26;0.90;99.90
33269;DHT22;19640;50.944;5.260;2023-01-29T09:26:51;0.90;99.90
33269;DHT22;19640;50.944;5.260;2023-01-29T09:29:17;1.00;99.90
33269;DHT22;19640;50.944;5.260;2023-01-29T09:31:43;1.00;99.90
33269;DHT22;19640;50.944;5.260;2023-01-29T09:34:08;1.10;99.90
33269;DHT22;19640;50.944;5.260;2023-01-29T09:36:34;1.30;99.90
33269;DHT22;19640;50.944;5.260;2023-01-29T09:38:59;1.30;99.90
33269;DHT22;19640;50.944;5.260;2023-01-29T09:47:15;1.40;99.90
33269;DHT22;19640;50.944;5.260;2023-01-29T09:49:46;1.50;99.90
33269;DHT22;19640;50.944;5.260;2023-01-29T09:52:21;1.40;99.90
33269;DHT22;19640;50.944;5.260;2023-01-29T09:57:48;1.40;99.90
33269;DHT22;19640;50.944;5.260;2023-01-29T10:00:24;1.60;99.90
33269;DHT22;19640;50.944;5.260;2023-01-29T10:03:23;1.70;99.90
33269;DHT22;19640;50.944;5.260;2023-01-29T10:06:14;1.70;99.90
33269;DHT22;19640;50.944;5.260;2023-01-29T10:14:59;1.90;99.90
33269;DHT22;19640;50.944;5.260;2023-01-29T10:23:19;1.90;99.90
33269;DHT22;19640;50.944;5.260;2023-01-29T10:25:46;2.20;99.90
33269;DHT22;19640;50.944;5.260;2023-01-29T10:28:17;2.20;99.90
33269;DHT22;19640;50.944;5.260;2023-01-29T10:30:49;2.20;99.90
33269;DHT22;19640;50.944;5.260;2023-01-29T10:33:24;2.10;99.90
33269;DHT22;19640;50.944;5.260;2023-01-29T10:35:59;2.30;99.90
33269;DHT22;19640;50.944;5.260;2023-01-29T10:52:20;2.40;99.90
33269;DHT22;19640;50.944;5.260;2023-01-29T10:55:00;2.60;99.90
33269;DHT22;19640;50.944;5.260;2023-01-29T10:57:49;2.50;99.90
33269;DHT22;19640;50.944;5.260;2023-01-29T11:00:33;2.70;99.90
33269;DHT22;19640;50.944;5.260;2023-01-29T11:03:17;2.80;99.90
33269;DHT22;19640;50.944;5.260;2023-01-29T11:06:00;2.70;99.90
33269;DHT22;19640;50.944;5.260;2023-01-29T11:08:33;2.30;99.90
33269;DHT22;19640;50.944;5.260;2023-01-29T11:13:33;2.30;99.90
33269;DHT22;19640;50.944;5.260;2023-01-29T11:15:59;2.30;99.90
33269;DHT22;19640;50.944;5.260;2023-01-29T11:18:25;2.50;99.90
33269;DHT22;19640;50.944;5.260;2023-01-29T11:21:02;2.30;99.90
33269;DHT22;19640;50.944;5.260;2023-01-29T11:23:32;2.20;99.90
33269;DHT22;19640;50.944;5.260;2023-01-29T11:25:59;2.10;99.90
33269;DHT22;19640;50.944;5.260;2023-01-29T11:28:42;2.20;99.90
33269;DHT22;19640;50.944;5.260;2023-01-29T11:33:44;2.40;99.90
33269;DHT22;19640;50.944;5.260;2023-01-29T11:36:24;2.50;99.90
33269;DHT22;19640;50.944;5.260;2023-01-29T11:39:15;2.60;99.90
33269;DHT22;19640;50.944;5.260;2023-01-29T11:44:33;2.80;99.90
33269;DHT22;19640;50.944;5.260;2023-01-29T11:49:43;3.20;99.90
33269;DHT22;19640;50.944;5.260;2023-01-29T11:52:10;3.20;99.90
33269;DHT22;19640;50.944;5.260;2023-01-29T11:54:44;3.20;99.90
33269;DHT22;19640;50.944;5.260;2023-01-29T11:57:26;3.20;99.90
33269;DHT22;19640;50.944;5.260;2023-01-29T11:59:53;3.10;99.90
33269;DHT22;19640;50.944;5.260;2023-01-29T12:02:43;3.10;99.90
33269;DHT22;19640;50.944;5.260;2023-01-29T12:05:21;3.30;99.90
33269;DHT22;19640;50.944;5.260;2023-01-29T12:07:52;3.40;99.90
33269;DHT22;19640;50.944;5.260;2023-01-29T12:10:39;3.40;99.90
33269;DHT22;19640;50.944;5.260;2023-01-29T12:15:41;3.30;99.90
33269;DHT22;19640;50.944;5.260;2023-01-29T12:18:11;3.20;99.90
33269;DHT22;19640;50.944;5.260;2023-01-29T12:20:43;3.30;99.90
33269;DHT22;19640;50.944;5.260;2023-01-29T12:23:21;3.20;99.90
33269;DHT22;19640;50.944;5.260;2023-01-29T12:26:32;3.30;99.90
33269;DHT22;19640;50.944;5.260;2023-01-29T12:31:45;3.00;99.90
33269;DHT22;19640;50.944;5.260;2023-01-29T12:34:36;3.20;99.90
33269;DHT22;19640;50.944;5.260;2023-01-29T12:40:16;3.50;99.90
33269;DHT22;19640;50.944;5.260;2023-01-29T12:42:46;3.30;99.90
33269;DHT22;19640;50.944;5.260;2023-01-29T12:45:17;3.30;99.90
33269;DHT22;19640;50.944;5.260;2023-01-29T12:47:47;3.60;99.90
33269;DHT22;19640;50.944;5.260;2023-01-29T12:50:21;3.60;99.90
33269;DHT22;19640;50.944;5.260;2023-01-29T12:52:53;3.70;99.90
33269;DHT22;19640;50.944;5.260;2023-01-29T12:55:29;3.70;99.90
33269;DHT22;19640;50.944;5.260;2023-01-29T13:00:37;3.60;99.90
33269;DHT22;19640;50.944;5.260;2023-01-29T13:03:21;3.40;99.90
33269;DHT22;19640;50.944;5.260;2023-01-29T13:06:01;3.40;99.90
33269;DHT22;19640;50.944;5.260;2023-01-29T13:08:39;3.50;99.90
33269;DHT22;19640;50.944;5.260;2023-01-29T13:11:13;3.70;99.90
33269;DHT22;19640;50.944;5.260;2023-01-29T13:13:46;3.40;99.90
33269;DHT22;19640;50.944;5.260;2023-01-29T13:16:19;3.20;99.90
33269;DHT22;19640;50.944;5.260;2023-01-29T13:21:50;3.30;99.90
33269;DHT22;19640;50.944;5.260;2023-01-29T13:24:20;3.30;99.90
33269;DHT22;19640;50.944;5.260;2023-01-29T13:26:48;3.40;99.90
33269;DHT22;19640;50.944;5.260;2023-01-29T13:29:23;3.50;99.90
33269;DHT22;19640;50.944;5.260;2023-01-29T13:31:51;3.40;99.90
33269;DHT22;19640;50.944;5.260;2023-01-29T13:34:24;3.40;99.90
33269;DHT22;19640;50.944;5.260;2023-01-29T13:36:56;3.60;99.90
33269;DHT22;19640;50.944;5.260;2023-01-29T13:39:29;3.50;99.90
33269;DHT22;19640;50.944;5.260;2023-01-29T13:41:57;3.50;99.90
33269;DHT22;19640;50.944;5.260;2023-01-29T13:44:33;3.20;99.90
33269;DHT22;19640;50.944;5.260;2023-01-29T13:47:10;3.30;99.90
33269;DHT22;19640;50.944;5.260;2023-01-29T13:49:51;3.20;99.90
33269;DHT22;19640;50.944;5.260;2023-01-29T13:52:36;3.20;99.90
33269;DHT22;19640;50.944;5.260;2023-01-29T13:55:23;3.40;99.90
33269;DHT22;19640;50.944;5.260;2023-01-29T13:57:56;3.50;99.90
33269;DHT22;19640;50.944;5.260;2023-01-29T14:13:39;3.50;99.90
33269;DHT22;19640;50.944;5.260;2023-01-29T14:18:35;3.60;99.90
33269;DHT22;19640;50.944;5.260;2023-01-29T14:23:53;3.40;99.90
33269;DHT22;19640;50.944;5.260;2023-01-29T14:28:58;3.50;99.90
33269;DHT22;19640;50.944;5.260;2023-01-29T14:31:52;3.50;99.90
33269;DHT22;19640;50.944;5.260;2023-01-29T14:34:58;3.50;99.90
33269;DHT22;19640;50.944;5.260;2023-01-29T14:37:32;3.60;99.90
33269;DHT22;19640;50.944;5.260;2023-01-29T14:45:34;3.80;99.90
33269;DHT22;19640;50.944;5.260;2023-01-29T14:53:28;3.50;99.90
33269;DHT22;19640;50.944;5.260;2023-01-29T14:56:19;3.60;99.90
33269;DHT22;19640;50.944;5.260;2023-01-29T14:59:19;3.80;99.90
33269;DHT22;19640;50.944;5.260;2023-01-29T15:01:53;4.00;99.90
33269;DHT22;19640;50.944;5.260;2023-01-29T15:04:24;3.80;99.90
33269;DHT22;19640;50.944;5.260;2023-01-29T15:07:13;4.00;99.90
33269;DHT22;19640;50.944;5.260;2023-01-29T15:12:54;3.80;99.90
33269;DHT22;19640;50.944;5.260;2023-01-29T15:18:07;3.90;99.90
33269;DHT22;19640;50.944;5.260;2023-01-29T15:20:38;3.90;99.90
33269;DHT22;19640;50.944;5.260;2023-01-29T15:23:31;3.80;99.90
33269;DHT22;19640;50.944;5.260;2023-01-29T15:25:59;4.00;99.90
33269;DHT22;19640;50.944;5.260;2023-01-29T15:28:28;4.20;99.90
33269;DHT22;19640;50.944;5.260;2023-01-29T15:30:57;4.30;99.90
33269;DHT22;19640;50.944;5.260;2023-01-29T15:33:23;4.40;99.90
33269;DHT22;19640;50.944;5.260;2023-01-29T15:35:55;4.50;99.90
33269;DHT22;19640;50.944;5.260;2023-01-29T15:38:23;4.50;99.90
33269;DHT22;19640;50.944;5.260;2023-01-29T15:41:12;4.40;99.90
33269;DHT22;19640;50.944;5.260;2023-01-29T15:43:43;4.30;99.90
33269;DHT22;19640;50.944;5.260;2023-01-29T15:46:33;4.30;99.90
33269;DHT22;19640;50.944;5.260;2023-01-29T15:49:05;4.10;99.90
33269;DHT22;19640;50.944;5.260;2023-01-29T15:51:31;4.10;99.90
33269;DHT22;19640;50.944;5.260;2023-01-29T15:54:09;4.20;99.90
33269;DHT22;19640;50.944;5.260;2023-01-29T15:56:39;3.90;99.90
33269;DHT22;19640;50.944;5.260;2023-01-29T15:59:07;3.90;99.90
33269;DHT22;19640;50.944;5.260;2023-01-29T16:01:36;3.90;99.90
33269;DHT22;19640;50.944;5.260;2023-01-29T16:04:02;3.80;99.90
33269;DHT22;19640;50.944;5.260;2023-01-29T16:06:38;3.70;99.90
33269;DHT22;19640;50.944;5.260;2023-01-29T16:09:16;3.90;99.90
33269;DHT22;19640;50.944;5.260;2023-01-29T16:11:43;4.00;99.90
33269;DHT22;19640;50.944;5.260;2023-01-29T16:14:12;4.00;99.90
33269;DHT22;19640;50.944;5.260;2023-01-29T16:16:38;4.00;99.90
33269;DHT22;19640;50.944;5.260;2023-01-29T16:19:20;4.10;99.90
33269;DHT22;19640;50.944;5.260;2023-01-29T16:21:51;4.00;99.90
33269;DHT22;19640;50.944;5.260;2023-01-29T16:24:18;3.80;99.90
33269;DHT22;19640;50.944;5.260;2023-01-29T16:26:48;3.60;99.90
33269;DHT22;19640;50.944;5.260;2023-01-29T16:29:17;3.50;99.90
33269;DHT22;19640;50.944;5.260;2023-01-29T16:31:44;3.60;99.90
33269;DHT22;19640;50.944;5.260;2023-01-29T16:36:44;3.80;99.90
33269;DHT22;19640;50.944;5.260;2023-01-29T16:39:22;3.70;99.90
33269;DHT22;19640;50.944;5.260;2023-01-29T16:44:49;3.70;99.90
33269;DHT22;19640;50.944;5.260;2023-01-29T16:47:25;3.80;99.90
33269;DHT22;19640;50.944;5.260;2023-01-29T16:50:31;3.60;99.90
33269;DHT22;19640;50.944;5.260;2023-01-29T16:53:19;3.50;99.90
33269;DHT22;19640;50.944;5.260;2023-01-29T16:55:48;3.50;99.90
33269;DHT22;19640;50.944;5.260;2023-01-29T16:58:25;3.60;99.90
33269;DHT22;19640;50.944;5.260;2023-01-29T17:01:01;3.60;99.90
33269;DHT22;19640;50.944;5.260;2023-01-29T17:03:30;3.70;99.90
33269;DHT22;19640;50.944;5.260;2023-01-29T17:05:57;3.50;99.90
33269;DHT22;19640;50.944;5.260;2023-01-29T17:08:32;3.60;99.90
33269;DHT22;19640;50.944;5.260;2023-01-29T17:10:59;3.60;99.90
33269;DHT22;19640;50.944;5.260;2023-01-29T17:16:00;3.50;99.90
33269;DHT22;19640;50.944;5.260;2023-01-29T17:18:29;3.50;99.90
33269;DHT22;19640;50.944;5.260;2023-01-29T17:20:55;3.50;99.90
33269;DHT22;19640;50.944;5.260;2023-01-29T17:23:21;3.30;99.90
33269;DHT22;19640;50.944;5.260;2023-01-29T17:25:47;3.30;99.90
33269;DHT22;19640;50.944;5.260;2023-01-29T17:28:15;3.30;99.90
33269;DHT22;19640;50.944;5.260;2023-01-29T17:30:41;3.50;99.90
33269;DHT22;19640;50.944;5.260;2023-01-29T17:33:12;3.70;99.90
33269;DHT22;19640;50.944;5.260;2023-01-29T17:35:38;3.50;99.90
33269;DHT22;19640;50.944;5.260;2023-01-29T17:38:04;3.40;99.90
33269;DHT22;19640;50.944;5.260;2023-01-29T17:41:01;3.40;99.90
33269;DHT22;19640;50.944;5.260;2023-01-29T17:43:28;3.60;99.90
33269;DHT22;19640;50.944;5.260;2023-01-29T17:45:54;3.70;99.90
33269;DHT22;19640;50.944;5.260;2023-01-29T17:48:22;3.50;99.90
33269;DHT22;19640;50.944;5.260;2023-01-29T17:50:50;3.60;99.90
33269;DHT22;19640;50.944;5.260;2023-01-29T17:53:18;3.70;99.90
33269;DHT22;19640;50.944;5.260;2023-01-29T17:55:44;3.70;99.90
33269;DHT22;19640;50.944;5.260;2023-01-29T17:58:30;3.60;99.90
33269;DHT22;19640;50.944;5.260;2023-01-29T18:00:56;3.50;99.90
33269;DHT22;19640;50.944;5.260;2023-01-29T18:03:21;3.50;99.90
33269;DHT22;19640;50.944;5.260;2023-01-29T18:05:48;3.50;99.90
33269;DHT22;19640;50.944;5.260;2023-01-29T18:08:20;3.50;99.90
33269;DHT22;19640;50.944;5.260;2023-01-29T18:10:47;3.50;99.90
33269;DHT22;19640;50.944;5.260;2023-01-29T18:13:13;3.60;99.90
33269;DHT22;19640;50.944;5.260;2023-01-29T18:15:38;3.50;99.90
33269;DHT22;19640;50.944;5.260;2023-01-29T18:18:05;3.70;99.90
33269;DHT22;19640;50.944;5.260;2023-01-29T18:20:31;3.60;99.90
33269;DHT22;19640;50.944;5.260;2023-01-29T18:23:01;3.40;99.90
33269;DHT22;19640;50.944;5.260;2023-01-29T18:25:29;3.40;99.90
33269;DHT22;19640;50.944;5.260;2023-01-29T18:27:55;3.50;99.90
33269;DHT22;19640;50.944;5.260;2023-01-29T18:30:21;3.50;99.90